Time;durP1;ratioP1;P1;durP2;ratioP2;P2;SDS_P1;SDS_P2;PMS_P1;PMS_P2;Temp;Humidity;BMP_temperature;BMP_pressure;BME280_temperature;BME280_humidity;BME280_pressure;Samples;Min_cycle;Max_cycle;Signal;HPM_P1;HPM_P2
2023/12/12 00:00:00;;;;;;;23.20;4.18;;;9.10;99.90;;;;;;5071032;28;20641;-59
2023/12/12 00:02:28;;;;;;;23.02;3.28;;;9.10;99.90;;;;;;5070566;28;20209;-58
2023/12/12 00:04:56;;;;;;;13.13;3.15;;;9.10;99.90;;;;;;5068778;28;20307;-59
2023/12/12 00:07:24;;;;;;;18.70;2.72;;;9.10;99.90;;;;;;5073032;28;20197;-59
2023/12/12 00:09:53;;;;;;;17.45;3.50;;;9.10;99.90;;;;;;5071203;28;20209;-58
2023/12/12 00:12:21;;;;;;;17.15;3.60;;;9.10;99.90;;;;;;5071585;28;20209;-59
2023/12/12 00:14:49;;;;;;;25.00;3.65;;;9.10;99.90;;;;;;5070824;28;20651;-58
2023/12/12 00:17:17;;;;;;;13.40;2.90;;;9.10;99.90;;;;;;5072151;28;20278;-58
2023/12/12 00:19:45;;;;;;;20.35;3.15;;;9.10;99.90;;;;;;5076031;28;20208;-59
2023/12/12 00:22:13;;;;;;;19.00;3.20;;;9.00;99.90;;;;;;5071921;28;20211;-59
2023/12/12 00:24:41;;;;;;;14.55;2.28;;;9.00;99.90;;;;;;5073249;28;20221;-58
2023/12/12 00:27:10;;;;;;;15.55;2.95;;;9.00;99.90;;;;;;5074979;28;20304;-59
2023/12/12 00:29:38;;;;;;;25.55;3.50;;;9.00;99.90;;;;;;5074991;28;20758;-58
2023/12/12 00:32:06;;;;;;;23.40;3.63;;;9.00;99.90;;;;;;5073693;28;20212;-59
2023/12/12 00:34:36;;;;;;;17.90;3.83;;;8.90;99.90;;;;;;5073125;28;20270;-59
2023/12/12 00:37:04;;;;;;;18.95;3.28;;;8.90;99.90;;;;;;5068405;28;20654;-59
2023/12/12 00:39:32;;;;;;;13.93;2.92;;;8.90;99.90;;;;;;5071247;28;20284;-58
2023/12/12 00:42:00;;;;;;;17.20;3.03;;;8.90;99.90;;;;;;5070710;28;20701;-59
2023/12/12 00:44:29;;;;;;;18.05;3.80;;;8.90;99.90;;;;;;5068724;28;20233;-59
2023/12/12 00:46:57;;;;;;;13.68;2.90;;;8.80;99.90;;;;;;5075158;28;20260;-58
2023/12/12 00:49:25;;;;;;;15.43;2.50;;;8.80;99.90;;;;;;5075886;28;20201;-59
2023/12/12 00:51:53;;;;;;;15.73;2.92;;;8.80;99.90;;;;;;5075521;28;20737;-59
2023/12/12 00:54:21;;;;;;;18.60;2.90;;;8.80;99.90;;;;;;5071842;28;20651;-59
2023/12/12 00:56:49;;;;;;;20.27;3.45;;;8.90;99.90;;;;;;5071243;28;20288;-59
2023/12/12 00:59:17;;;;;;;21.52;3.17;;;8.80;99.90;;;;;;5077512;28;20208;-59
2023/12/12 01:01:46;;;;;;;15.07;3.10;;;8.80;99.90;;;;;;5075963;28;20667;-59
2023/12/12 01:04:14;;;;;;;18.48;3.22;;;8.70;99.90;;;;;;5074471;28;20233;-59
2023/12/12 01:06:42;;;;;;;17.33;3.00;;;8.70;99.90;;;;;;5074498;28;20252;-58
2023/12/12 01:09:10;;;;;;;17.92;2.75;;;8.60;99.90;;;;;;5074514;28;20709;-58
2023/12/12 01:11:38;;;;;;;19.75;3.40;;;8.60;99.90;;;;;;5074487;28;20266;-58
2023/12/12 01:14:05;;;;;;;19.15;3.28;;;8.60;99.90;;;;;;5077842;28;20260;-59
2023/12/12 01:16:33;;;;;;;14.30;3.20;;;8.60;99.90;;;;;;5075374;28;20267;-58
2023/12/12 01:19:03;;;;;;;24.00;3.42;;;8.60;99.90;;;;;;5071059;28;20209;-59
2023/12/12 01:21:32;;;;;;;14.13;2.53;;;8.60;99.90;;;;;;5073242;28;20212;-59
2023/12/12 01:24:00;;;;;;;15.77;3.35;;;8.60;99.90;;;;;;5074251;28;20259;-59
2023/12/12 01:26:28;;;;;;;16.15;2.92;;;8.60;99.90;;;;;;5078751;28;20229;-59
2023/12/12 01:28:55;;;;;;;24.08;3.20;;;8.50;99.90;;;;;;5077658;28;20228;-59
2023/12/12 01:31:23;;;;;;;15.95;2.83;;;8.60;99.90;;;;;;5079157;28;20229;-59
2023/12/12 01:33:52;;;;;;;20.77;3.08;;;8.60;99.90;;;;;;5075484;28;20225;-59
2023/12/12 01:36:21;;;;;;;18.58;3.67;;;8.50;99.90;;;;;;5077594;28;20207;-59
2023/12/12 01:38:49;;;;;;;24.45;3.47;;;8.50;99.90;;;;;;5074102;28;20232;-58
2023/12/12 01:41:18;;;;;;;16.75;2.50;;;8.50;99.90;;;;;;5074564;28;20288;-59
2023/12/12 01:43:46;;;;;;;18.42;3.40;;;8.50;99.90;;;;;;5073759;28;20268;-58
2023/12/12 01:46:15;;;;;;;20.23;3.10;;;8.60;99.90;;;;;;5074539;28;20275;-57
2023/12/12 01:48:43;;;;;;;20.55;3.40;;;8.60;99.90;;;;;;5079274;28;20204;-58
2023/12/12 01:51:11;;;;;;;22.00;3.58;;;8.60;99.90;;;;;;5073151;28;20217;-58
2023/12/12 01:53:43;;;;;;;16.83;2.55;;;8.50;99.90;;;;;;5078150;28;20248;-57
2023/12/12 01:56:11;;;;;;;24.75;3.17;;;8.50;99.90;;;;;;5076439;28;20624;-57
2023/12/12 01:58:39;;;;;;;12.40;2.85;;;8.50;99.90;;;;;;5076166;28;20735;-57
2023/12/12 02:01:07;;;;;;;14.35;2.72;;;8.50;99.90;;;;;;5073795;28;20298;-58
2023/12/12 02:03:35;;;;;;;11.52;2.58;;;8.40;99.90;;;;;;5074641;28;20232;-57
2023/12/12 02:06:04;;;;;;;20.50;3.33;;;8.40;99.90;;;;;;5074858;28;20364;-58
2023/12/12 02:08:32;;;;;;;14.30;2.63;;;8.40;99.90;;;;;;5069131;28;20198;-57
2023/12/12 02:11:01;;;;;;;16.55;2.72;;;8.40;99.90;;;;;;5069076;28;20288;-57
2023/12/12 02:13:29;;;;;;;18.38;3.20;;;8.30;99.90;;;;;;5071418;28;20228;-58
2023/12/12 02:15:57;;;;;;;15.10;2.65;;;8.30;99.90;;;;;;5068816;28;20214;-56
2023/12/12 02:18:25;;;;;;;14.32;2.40;;;8.30;99.90;;;;;;5075811;28;20295;-57
2023/12/12 02:20:53;;;;;;;15.95;2.15;;;8.30;99.90;;;;;;5080731;28;20307;-58
2023/12/12 02:23:23;;;;;;;20.60;3.90;;;8.20;99.90;;;;;;5072335;28;20550;-57
2023/12/12 02:25:51;;;;;;;19.85;2.35;;;8.20;99.90;;;;;;5069244;28;20240;-58
2023/12/12 02:28:18;;;;;;;19.33;2.97;;;8.20;99.90;;;;;;5074070;28;20257;-58
2023/12/12 02:30:46;;;;;;;15.80;3.30;;;8.20;99.90;;;;;;5073500;28;20697;-57
2023/12/12 02:33:14;;;;;;;16.70;2.42;;;8.10;99.90;;;;;;5069299;28;20663;-58
2023/12/12 02:35:42;;;;;;;19.73;2.90;;;8.10;99.90;;;;;;5076231;28;20236;-57
2023/12/12 02:38:10;;;;;;;16.15;2.63;;;8.10;99.90;;;;;;5072588;28;20698;-55
2023/12/12 02:40:39;;;;;;;17.70;2.55;;;8.10;99.90;;;;;;5073533;28;20232;-57
2023/12/12 02:43:07;;;;;;;18.60;2.47;;;8.10;99.90;;;;;;5072344;28;20239;-59
2023/12/12 02:45:35;;;;;;;17.63;2.50;;;8.00;99.90;;;;;;5074470;28;20290;-58
2023/12/12 02:48:03;;;;;;;18.63;3.08;;;8.00;99.90;;;;;;5073574;28;20717;-57
2023/12/12 02:50:31;;;;;;;14.60;2.60;;;8.00;99.90;;;;;;5075816;28;20200;-58
2023/12/12 02:52:58;;;;;;;15.57;3.25;;;8.00;99.90;;;;;;5080004;28;20254;-57
2023/12/12 02:55:26;;;;;;;20.75;3.88;;;8.00;99.90;;;;;;5076154;28;20304;-57
2023/12/12 02:57:55;;;;;;;21.05;2.50;;;7.90;99.90;;;;;;5072245;28;20667;-57
2023/12/12 03:00:23;;;;;;;14.05;2.60;;;7.90;99.90;;;;;;5072567;28;20667;-57
2023/12/12 03:02:51;;;;;;;15.73;3.13;;;7.90;99.90;;;;;;5076908;28;20293;-58
2023/12/12 03:05:19;;;;;;;20.63;3.15;;;7.90;99.90;;;;;;5073498;28;20264;-57
2023/12/12 03:07:47;;;;;;;12.70;2.65;;;7.90;99.90;;;;;;5072250;28;20225;-57
2023/12/12 03:10:15;;;;;;;17.60;2.88;;;7.90;99.90;;;;;;5072274;28;20678;-56
2023/12/12 03:12:43;;;;;;;19.40;2.97;;;7.80;99.90;;;;;;5075299;28;20291;-58
2023/12/12 03:15:12;;;;;;;14.38;2.78;;;7.80;99.90;;;;;;5073342;28;20602;-57
2023/12/12 03:17:40;;;;;;;24.23;3.85;;;7.80;99.90;;;;;;5073093;28;20201;-58
2023/12/12 03:20:09;;;;;;;18.50;3.10;;;7.80;99.90;;;;;;5074913;28;20263;-58
2023/12/12 03:22:37;;;;;;;18.33;3.00;;;7.90;99.90;;;;;;5067393;28;20263;-58
2023/12/12 03:25:07;;;;;;;20.23;3.45;;;7.90;99.90;;;;;;5076746;28;20229;-58
2023/12/12 03:27:36;;;;;;;21.83;3.67;;;7.90;99.90;;;;;;5071624;28;20720;-57
2023/12/12 03:30:04;;;;;;;13.75;2.70;;;7.90;99.90;;;;;;5075526;28;20209;-58
2023/12/12 03:32:33;;;;;;;16.52;2.72;;;7.80;99.90;;;;;;5072536;28;20259;-58
2023/12/12 03:35:01;;;;;;;11.77;2.72;;;7.80;99.90;;;;;;5072231;28;20264;-57
2023/12/12 03:37:29;;;;;;;20.55;4.35;;;7.80;99.90;;;;;;5073183;28;20628;-56
2023/12/12 03:39:57;;;;;;;21.17;3.30;;;7.80;99.90;;;;;;5071954;28;20216;-57
2023/12/12 03:42:25;;;;;;;22.33;3.25;;;7.80;99.90;;;;;;5075754;28;20206;-57
2023/12/12 03:44:53;;;;;;;17.13;3.20;;;7.80;99.90;;;;;;5071513;28;20237;-57
2023/12/12 03:47:21;;;;;;;21.42;3.53;;;7.80;99.90;;;;;;5073886;28;20316;-57
2023/12/12 03:49:50;;;;;;;22.15;3.00;;;7.80;99.90;;;;;;5076436;28;20664;-58
2023/12/12 03:52:18;;;;;;;22.70;3.75;;;7.80;99.90;;;;;;5072528;28;20330;-58
2023/12/12 03:54:46;;;;;;;20.08;3.70;;;7.80;99.90;;;;;;5072772;28;20625;-57
2023/12/12 03:57:13;;;;;;;24.30;3.22;;;7.70;99.90;;;;;;5067837;28;20201;-57
2023/12/12 03:59:41;;;;;;;20.88;3.42;;;7.70;99.90;;;;;;5071526;28;20658;-56
2023/12/12 04:02:09;;;;;;;13.48;2.80;;;7.70;99.90;;;;;;5073550;28;20216;-57
2023/12/12 04:04:37;;;;;;;17.77;3.30;;;7.70;99.90;;;;;;5082487;28;20225;-58
2023/12/12 04:07:06;;;;;;;13.55;2.58;;;7.60;99.90;;;;;;5071001;28;20621;-57
2023/12/12 04:09:34;;;;;;;10.10;2.50;;;7.60;99.90;;;;;;5071331;28;20630;-58
2023/12/12 04:12:02;;;;;;;13.52;2.85;;;7.60;99.90;;;;;;5074187;28;20300;-58
2023/12/12 04:14:30;;;;;;;20.40;3.15;;;7.60;99.90;;;;;;5075281;28;20405;-57
2023/12/12 04:16:58;;;;;;;19.60;3.42;;;7.60;99.90;;;;;;5073113;28;20251;-57
2023/12/12 04:19:26;;;;;;;19.05;3.70;;;7.60;99.90;;;;;;5073859;28;20229;-58
2023/12/12 04:21:54;;;;;;;14.02;3.25;;;7.60;99.90;;;;;;5071740;28;20205;-56
2023/12/12 04:24:23;;;;;;;16.15;3.67;;;7.60;99.90;;;;;;5071552;28;20713;-58
2023/12/12 04:26:51;;;;;;;19.33;3.00;;;7.60;99.90;;;;;;5064457;28;20235;-57
2023/12/12 04:29:19;;;;;;;17.80;3.63;;;7.60;99.90;;;;;;5073245;28;20702;-57
2023/12/12 04:31:49;;;;;;;11.98;2.85;;;7.60;99.90;;;;;;5073113;28;20727;-58
2023/12/12 04:34:17;;;;;;;17.58;3.00;;;7.50;99.90;;;;;;5071881;28;20732;-58
2023/12/12 04:36:45;;;;;;;16.63;2.90;;;7.60;99.90;;;;;;5071177;28;20225;-57
2023/12/12 04:39:15;;;;;;;16.70;2.75;;;7.50;99.90;;;;;;5073587;28;20197;-59
2023/12/12 04:41:44;;;;;;;18.05;2.83;;;7.50;99.90;;;;;;5070979;28;20640;-57
2023/12/12 04:44:12;;;;;;;18.80;3.33;;;7.50;99.90;;;;;;5075555;28;20282;-58
2023/12/12 04:46:40;;;;;;;25.98;5.40;;;7.50;99.90;;;;;;5062601;28;20233;-60
2023/12/12 04:49:09;;;;;;;29.08;5.47;;;7.50;99.90;;;;;;5074280;28;20253;-60
2023/12/12 04:51:37;;;;;;;16.92;4.25;;;7.50;99.90;;;;;;5070950;28;20201;-60
2023/12/12 04:54:05;;;;;;;20.00;4.25;;;7.60;99.90;;;;;;5074453;28;20251;-59
2023/12/12 04:56:33;;;;;;;25.60;4.60;;;7.60;99.90;;;;;;5071476;28;20201;-59
2023/12/12 04:59:02;;;;;;;18.60;4.38;;;7.60;99.90;;;;;;5070990;28;20197;-59
2023/12/12 05:01:31;;;;;;;27.00;5.53;;;7.60;99.90;;;;;;5072260;28;20255;-59
2023/12/12 05:03:59;;;;;;;26.83;4.50;;;7.60;99.90;;;;;;5072674;28;20232;-59
2023/12/12 05:06:27;;;;;;;18.55;4.63;;;7.60;99.90;;;;;;5073213;28;20696;-59
2023/12/12 05:08:55;;;;;;;22.05;4.97;;;7.60;99.90;;;;;;5070505;28;20714;-60
2023/12/12 05:11:23;;;;;;;24.23;4.93;;;7.60;99.90;;;;;;5072156;28;20201;-60
2023/12/12 05:13:51;;;;;;;24.35;4.30;;;7.60;99.90;;;;;;5070202;28;20608;-58
2023/12/12 05:16:20;;;;;;;20.55;4.25;;;7.60;99.90;;;;;;5070562;28;20205;-59
2023/12/12 05:18:59;;;;;;;13.65;3.95;;;7.60;99.90;;;;;;5071838;28;20212;-60
2023/12/12 05:21:27;;;;;;;14.10;4.03;;;7.50;99.90;;;;;;5074306;28;20211;-59
2023/12/12 05:23:56;;;;;;;26.88;3.80;;;7.50;99.90;;;;;;5069167;28;20271;-60
2023/12/12 05:26:23;;;;;;;21.88;3.67;;;7.50;99.90;;;;;;5067598;28;20205;-59
2023/12/12 05:28:52;;;;;;;28.75;4.35;;;7.50;99.90;;;;;;5068080;28;20745;-59
2023/12/12 05:31:24;;;;;;;19.80;3.95;;;7.50;99.90;;;;;;5070039;28;20651;-58
2023/12/12 05:33:52;;;;;;;23.27;4.28;;;7.50;99.90;;;;;;5070015;28;20221;-58
2023/12/12 05:36:20;;;;;;;18.30;3.80;;;7.60;99.90;;;;;;5072921;28;20208;-57
2023/12/12 05:38:49;;;;;;;16.50;3.45;;;7.60;99.90;;;;;;5074107;28;20284;-58
2023/12/12 05:41:17;;;;;;;13.93;3.92;;;7.60;99.90;;;;;;5070361;28;20293;-58
2023/12/12 05:43:45;;;;;;;17.42;3.45;;;7.50;99.90;;;;;;5071377;28;20634;-58
2023/12/12 05:46:13;;;;;;;18.02;3.72;;;7.50;99.90;;;;;;5073612;28;20228;-57
2023/12/12 05:48:42;;;;;;;17.55;3.72;;;7.60;99.90;;;;;;5074983;28;20225;-57
2023/12/12 05:51:11;;;;;;;15.15;3.45;;;7.50;99.90;;;;;;5079323;28;20216;-56
2023/12/12 05:53:38;;;;;;;20.15;3.70;;;7.50;99.90;;;;;;5069746;28;20235;-56
2023/12/12 05:56:07;;;;;;;16.55;3.83;;;7.60;99.90;;;;;;5069093;28;20638;-57
2023/12/12 05:58:35;;;;;;;18.50;3.95;;;7.60;99.90;;;;;;5079933;28;20295;-57
2023/12/12 06:01:04;;;;;;;24.23;4.80;;;7.50;99.90;;;;;;5073593;28;20587;-58
2023/12/12 06:03:32;;;;;;;17.60;4.05;;;7.50;99.90;;;;;;5074296;28;20224;-57
2023/12/12 06:06:07;;;;;;;16.50;4.28;;;7.60;99.90;;;;;;5077852;28;20649;-56
2023/12/12 06:08:36;;;;;;;15.60;4.38;;;7.50;99.90;;;;;;5072773;28;20294;-58
2023/12/12 06:11:03;;;;;;;14.45;3.33;;;7.50;99.90;;;;;;5073371;28;20310;-58
2023/12/12 06:13:31;;;;;;;12.05;3.88;;;7.50;99.90;;;;;;5070944;28;20249;-56
2023/12/12 06:15:59;;;;;;;16.33;3.72;;;7.50;99.90;;;;;;5072889;28;20732;-56
2023/12/12 06:18:27;;;;;;;17.42;3.63;;;7.50;99.90;;;;;;5082903;28;20296;-58
2023/12/12 06:20:55;;;;;;;18.70;3.55;;;7.50;99.90;;;;;;5073823;28;20216;-56
2023/12/12 06:23:25;;;;;;;14.63;3.75;;;7.50;99.90;;;;;;5071145;28;20241;-57
2023/12/12 06:25:54;;;;;;;18.42;4.20;;;7.40;99.90;;;;;;5077722;28;20233;-57
2023/12/12 06:28:22;;;;;;;18.42;4.15;;;7.40;99.90;;;;;;5074414;28;20212;-58
2023/12/12 06:30:49;;;;;;;20.27;3.42;;;7.40;99.90;;;;;;5082198;28;20223;-57
2023/12/12 06:33:18;;;;;;;19.30;3.90;;;7.30;99.90;;;;;;5079190;28;20288;-57
2023/12/12 06:35:46;;;;;;;18.35;4.47;;;7.30;99.90;;;;;;5072955;28;20197;-57
2023/12/12 06:38:14;;;;;;;22.05;4.10;;;7.30;99.90;;;;;;5077147;28;20919;-57
2023/12/12 06:40:43;;;;;;;16.90;3.75;;;7.30;99.90;;;;;;5073484;28;20258;-58
2023/12/12 06:43:12;;;;;;;20.15;3.83;;;7.30;99.90;;;;;;5070026;28;20655;-56
2023/12/12 06:45:39;;;;;;;16.75;3.75;;;7.30;99.90;;;;;;5075328;28;20205;-58
2023/12/12 06:48:07;;;;;;;16.52;4.28;;;7.20;99.90;;;;;;5071814;28;20576;-54
2023/12/12 06:50:36;;;;;;;18.52;3.95;;;7.20;99.90;;;;;;5077031;28;20256;-57
2023/12/12 06:53:03;;;;;;;16.23;3.53;;;7.20;99.90;;;;;;5074736;28;20216;-57
2023/12/12 06:55:31;;;;;;;22.38;4.15;;;7.20;99.90;;;;;;5068709;28;20205;-57
2023/12/12 06:58:01;;;;;;;21.83;3.70;;;7.10;99.90;;;;;;5070292;28;20221;-55
2023/12/12 07:00:33;;;;;;;13.00;3.45;;;7.10;99.90;;;;;;5074666;28;20210;-59
2023/12/12 07:03:01;;;;;;;19.05;2.83;;;7.00;99.90;;;;;;5071801;28;20237;-59
2023/12/12 07:05:29;;;;;;;13.05;3.13;;;7.00;99.90;;;;;;5057830;28;20611;-58
2023/12/12 07:07:57;;;;;;;15.13;3.97;;;7.00;99.90;;;;;;5068148;28;20216;-59
2023/12/12 07:10:24;;;;;;;15.10;3.15;;;6.90;99.90;;;;;;5075848;28;20327;-58
2023/12/12 07:12:52;;;;;;;12.18;3.60;;;6.90;99.90;;;;;;5079483;28;20214;-59
2023/12/12 07:15:23;;;;;;;16.13;3.33;;;6.90;99.90;;;;;;5073637;28;20225;-59
2023/12/12 07:17:51;;;;;;;15.57;3.53;;;6.80;99.90;;;;;;5069905;28;20208;-59
2023/12/12 07:20:19;;;;;;;14.75;3.38;;;6.80;99.90;;;;;;5064031;28;20211;-59
2023/12/12 07:22:47;;;;;;;13.57;2.88;;;6.70;99.90;;;;;;5061904;28;20212;-60
2023/12/12 07:25:15;;;;;;;11.57;3.15;;;6.80;99.90;;;;;;5064761;28;20343;-59
2023/12/12 07:27:43;;;;;;;17.00;3.45;;;6.80;99.90;;;;;;5073620;28;20202;-60
2023/12/12 07:30:12;;;;;;;16.58;3.38;;;6.70;99.90;;;;;;5069844;28;20308;-59
2023/12/12 07:32:41;;;;;;;12.25;3.40;;;6.60;99.90;;;;;;5069370;28;20197;-60
2023/12/12 07:35:10;;;;;;;17.30;3.42;;;6.60;99.90;;;;;;5067074;28;20335;-59
2023/12/12 07:37:37;;;;;;;12.57;3.20;;;6.60;99.90;;;;;;5065861;28;20288;-59
2023/12/12 07:40:08;;;;;;;12.60;3.67;;;6.50;99.90;;;;;;5077873;28;20193;-60
2023/12/12 07:42:36;;;;;;;15.35;3.30;;;6.50;99.90;;;;;;5068432;28;20344;-60
2023/12/12 07:45:05;;;;;;;18.55;3.30;;;6.40;99.90;;;;;;5091580;22;20252;-61
2023/12/12 07:47:33;;;;;;;15.27;3.22;;;6.40;99.90;;;;;;5047229;28;20202;-60
2023/12/12 07:50:11;;;;;;;11.90;2.83;;;6.40;99.90;;;;;;5046862;28;20225;-59
2023/12/12 07:52:39;;;;;;;23.67;3.75;;;6.30;99.90;;;;;;5049729;28;20216;-61
2023/12/12 07:55:08;;;;;;;16.33;3.63;;;6.30;99.90;;;;;;5050487;28;20253;-61
2023/12/12 07:57:36;;;;;;;16.63;3.70;;;6.30;99.90;;;;;;5050646;28;20633;-61
2023/12/12 08:00:05;;;;;;;12.63;3.20;;;6.40;99.90;;;;;;5050839;28;20285;-61
2023/12/12 08:02:34;;;;;;;12.45;3.15;;;6.40;99.90;;;;;;5051630;28;20202;-61
2023/12/12 08:05:03;;;;;;;10.38;3.00;;;6.40;99.90;;;;;;5051226;28;20261;-60
2023/12/12 08:07:32;;;;;;;13.73;3.67;;;6.40;99.90;;;;;;5050729;28;20289;-60
2023/12/12 08:10:01;;;;;;;21.90;4.38;;;6.50;99.90;;;;;;5051235;28;20222;-61
2023/12/12 08:12:29;;;;;;;17.92;4.40;;;6.50;99.90;;;;;;5050688;28;20239;-59
2023/12/12 08:14:56;;;;;;;23.10;4.35;;;6.50;99.90;;;;;;5050733;28;20237;-60
2023/12/12 08:17:25;;;;;;;21.65;4.38;;;6.50;99.90;;;;;;5051561;28;20640;-60
2023/12/12 08:19:53;;;;;;;20.42;4.72;;;6.60;99.90;;;;;;5053165;28;20232;-61
2023/12/12 08:22:21;;;;;;;14.40;4.88;;;6.70;99.90;;;;;;5050230;28;20202;-59
2023/12/12 08:24:51;;;;;;;17.55;5.60;;;6.70;99.90;;;;;;5050423;28;20694;-63
2023/12/12 08:27:19;;;;;;;26.55;6.78;;;6.80;99.90;;;;;;5050701;28;20226;-62
2023/12/12 08:29:48;;;;;;;22.02;5.70;;;6.90;99.90;;;;;;5050555;28;20268;-62
2023/12/12 08:32:16;;;;;;;20.92;5.68;;;7.00;99.90;;;;;;5051088;28;20267;-62
2023/12/12 08:34:45;;;;;;;20.42;5.57;;;7.00;99.90;;;;;;5050480;28;20194;-61
2023/12/12 08:37:12;;;;;;;27.20;6.80;;;7.10;99.90;;;;;;5050628;28;20618;-64
2023/12/12 08:39:40;;;;;;;20.40;5.55;;;7.10;99.90;;;;;;5050044;28;20625;-64
2023/12/12 08:42:10;;;;;;;17.88;5.93;;;7.20;99.90;;;;;;5051070;28;20202;-63
2023/12/12 08:44:38;;;;;;;23.33;6.10;;;7.20;99.90;;;;;;5052123;28;20284;-64
2023/12/12 08:47:06;;;;;;;24.77;5.63;;;7.20;99.90;;;;;;5055911;28;20230;-64
2023/12/12 08:49:37;;;;;;;22.23;5.47;;;7.30;99.90;;;;;;5058225;28;20251;-63
2023/12/12 08:52:06;;;;;;;21.55;6.05;;;7.30;99.90;;;;;;5050576;28;20297;-64
2023/12/12 08:54:35;;;;;;;25.33;6.13;;;7.30;99.90;;;;;;5051097;28;20308;-62
2023/12/12 08:57:03;;;;;;;22.00;6.05;;;7.30;99.90;;;;;;5048738;28;20295;-64
2023/12/12 08:59:32;;;;;;;19.63;5.57;;;7.40;99.90;;;;;;5050254;28;20206;-62
2023/12/12 09:02:03;;;;;;;19.20;5.82;;;7.40;99.90;;;;;;5049539;28;20623;-62
2023/12/12 09:04:32;;;;;;;20.35;5.55;;;7.40;99.90;;;;;;5050135;28;20202;-62
2023/12/12 09:07:00;;;;;;;20.95;6.00;;;7.50;99.90;;;;;;5050326;28;20292;-63
2023/12/12 09:09:31;;;;;;;17.25;5.43;;;7.50;99.90;;;;;;5050446;28;20293;-62
2023/12/12 09:12:00;;;;;;;25.95;6.38;;;7.50;99.90;;;;;;5049243;28;20311;-61
2023/12/12 09:14:28;;;;;;;20.42;5.90;;;7.60;99.90;;;;;;5048305;28;20214;-62
2023/12/12 09:16:58;;;;;;;19.60;6.32;;;7.60;99.90;;;;;;5061621;28;20234;-61
2023/12/12 09:19:26;;;;;;;24.20;6.28;;;7.60;99.90;;;;;;5062926;28;20241;-60
2023/12/12 09:21:55;;;;;;;18.27;5.30;;;7.70;99.90;;;;;;5059813;28;20248;-60
2023/12/12 09:24:23;;;;;;;23.55;5.28;;;7.70;99.90;;;;;;5053730;28;20230;-60
2023/12/12 09:26:51;;;;;;;21.50;5.28;;;7.70;99.90;;;;;;5053948;28;20257;-59
2023/12/12 09:29:19;;;;;;;25.30;6.32;;;7.80;99.90;;;;;;5054051;28;20307;-61
2023/12/12 09:31:47;;;;;;;24.05;5.38;;;7.70;99.90;;;;;;5055478;28;20214;-60
2023/12/12 09:34:16;;;;;;;22.98;5.55;;;7.80;99.90;;;;;;5068201;28;20783;-61
2023/12/12 09:36:44;;;;;;;18.60;5.68;;;7.80;99.90;;;;;;5065161;28;20229;-64
2023/12/12 09:39:12;;;;;;;19.75;6.03;;;7.90;99.90;;;;;;5060970;28;20568;-62
2023/12/12 09:41:40;;;;;;;20.08;6.47;;;7.90;99.90;;;;;;5059593;28;20221;-61
2023/12/12 09:44:08;;;;;;;22.27;6.18;;;7.90;99.90;;;;;;5061947;28;20746;-60
2023/12/12 09:46:36;;;;;;;26.02;5.50;;;8.00;99.90;;;;;;5058344;28;20291;-60
2023/12/12 09:49:06;;;;;;;26.73;6.10;;;8.00;99.90;;;;;;5061030;28;20208;-62
2023/12/12 09:51:35;;;;;;;23.83;5.55;;;8.10;99.90;;;;;;5060169;28;20268;-60
2023/12/12 09:54:06;;;;;;;17.45;4.53;;;8.20;99.90;;;;;;5061454;28;20229;-63
2023/12/12 09:56:35;;;;;;;20.60;5.13;;;8.20;99.90;;;;;;5059679;28;20260;-61
2023/12/12 09:59:03;;;;;;;25.30;6.15;;;8.30;99.90;;;;;;5059708;28;20285;-61
2023/12/12 10:01:31;;;;;;;24.05;5.68;;;8.30;99.90;;;;;;5056584;28;20567;-62
2023/12/12 10:03:59;;;;;;;26.17;6.20;;;8.40;99.90;;;;;;5055910;28;20747;-62
2023/12/12 10:06:28;;;;;;;27.10;5.18;;;8.50;99.90;;;;;;5062466;28;20225;-63
2023/12/12 10:09:00;;;;;;;26.17;5.43;;;8.50;99.90;;;;;;5059191;28;20198;-60
2023/12/12 10:11:28;;;;;;;24.85;5.80;;;8.60;99.90;;;;;;5053217;28;20237;-60
2023/12/12 10:13:58;;;;;;;23.63;4.95;;;8.60;99.90;;;;;;5060107;28;20685;-61
2023/12/12 10:16:26;;;;;;;18.55;5.18;;;8.60;99.90;;;;;;5061851;28;20278;-61
2023/12/12 10:18:54;;;;;;;23.25;6.40;;;8.60;99.90;;;;;;5062805;28;20202;-60
2023/12/12 10:21:24;;;;;;;26.45;5.22;;;8.60;99.90;;;;;;5059668;28;20198;-60
2023/12/12 10:23:52;;;;;;;25.23;6.00;;;8.60;99.90;;;;;;5056172;28;20206;-62
2023/12/12 10:26:25;;;;;;;26.30;5.13;;;8.60;99.90;;;;;;5055702;28;20583;-61
2023/12/12 10:28:54;;;;;;;23.00;5.63;;;8.60;99.90;;;;;;5060664;28;20209;-61
2023/12/12 10:31:22;;;;;;;22.75;6.15;;;8.60;99.90;;;;;;5058079;28;20226;-61
2023/12/12 10:33:50;;;;;;;32.17;6.47;;;8.70;99.90;;;;;;5055124;28;20300;-62
2023/12/12 10:36:18;;;;;;;21.40;5.82;;;8.70;99.90;;;;;;5059693;28;20236;-62
2023/12/12 10:38:46;;;;;;;31.58;6.55;;;8.70;99.90;;;;;;5063582;28;20232;-62
2023/12/12 10:41:14;;;;;;;29.17;6.53;;;8.70;99.90;;;;;;5061267;28;20194;-62
2023/12/12 10:43:44;;;;;;;21.77;5.65;;;8.70;99.90;;;;;;5059466;28;20297;-61
2023/12/12 10:46:12;;;;;;;26.70;5.88;;;8.70;99.90;;;;;;5062096;28;20236;-62
2023/12/12 10:48:43;;;;;;;29.45;9.43;;;8.70;99.90;;;;;;5063536;28;20626;-62
2023/12/12 10:51:11;;;;;;;29.83;10.30;;;8.70;99.90;;;;;;5057675;28;20244;-62
2023/12/12 10:53:40;;;;;;;22.98;7.38;;;8.60;99.90;;;;;;5059781;28;20288;-62
2023/12/12 10:56:08;;;;;;;18.30;5.97;;;8.60;99.90;;;;;;5057498;28;20248;-62
2023/12/12 10:58:36;;;;;;;25.45;6.10;;;8.60;99.90;;;;;;5061519;28;20289;-62
2023/12/12 11:01:06;;;;;;;26.73;5.78;;;8.70;99.90;;;;;;5052864;28;20245;-62
2023/12/12 11:03:35;;;;;;;20.60;5.53;;;8.70;99.90;;;;;;5051562;28;20208;-62
2023/12/12 11:06:03;;;;;;;22.23;5.18;;;8.70;99.90;;;;;;5051514;28;20226;-61
2023/12/12 11:08:31;;;;;;;20.50;4.70;;;8.60;99.90;;;;;;5052064;28;20206;-61
2023/12/12 11:11:00;;;;;;;22.33;4.72;;;8.60;99.90;;;;;;5051803;28;20310;-61
2023/12/12 11:13:30;;;;;;;17.08;4.80;;;8.60;99.90;;;;;;5051712;28;20202;-61
2023/12/12 11:15:58;;;;;;;23.52;5.18;;;8.60;99.90;;;;;;5051205;28;20663;-61
2023/12/12 11:18:27;;;;;;;17.10;5.10;;;8.70;99.90;;;;;;5051549;28;20256;-61
2023/12/12 11:20:55;;;;;;;17.63;5.18;;;8.70;99.90;;;;;;5051860;28;20228;-61
2023/12/12 11:23:53;;;;;;;22.52;5.28;;;8.70;99.90;;;;;;5051425;28;20840;-61
2023/12/12 11:26:23;;;;;;;26.35;5.50;;;8.70;99.90;;;;;;5051835;28;20233;-61
2023/12/12 11:28:51;;;;;;;21.50;5.90;;;8.70;99.90;;;;;;5051569;28;20212;-61
2023/12/12 11:31:23;;;;;;;22.42;5.40;;;8.70;99.90;;;;;;5051546;28;20220;-61
2023/12/12 11:34:07;;;;;;;17.95;5.50;;;8.70;99.90;;;;;;5050312;28;20206;-61
2023/12/12 11:36:53;;;;;;;18.33;5.55;;;8.70;99.90;;;;;;5051067;28;20228;-59
2023/12/12 11:39:26;;;;;;;17.80;5.13;;;8.70;99.90;;;;;;5051642;28;20213;-62
2023/12/12 11:41:54;;;;;;;18.50;5.43;;;8.70;99.90;;;;;;5050987;28;20206;-60
2023/12/12 11:44:22;;;;;;;16.05;5.40;;;8.70;99.90;;;;;;5052487;28;20315;-59
2023/12/12 11:46:51;;;;;;;18.38;4.78;;;8.70;99.90;;;;;;5049574;28;20272;-59
2023/12/12 11:49:21;;;;;;;24.60;6.13;;;8.70;99.90;;;;;;5049802;28;20293;-60
2023/12/12 11:51:50;;;;;;;21.30;5.63;;;8.70;99.90;;;;;;5053812;28;20259;-58
2023/12/12 11:54:22;;;;;;;20.63;5.78;;;8.70;99.90;;;;;;5046946;28;20202;-59
2023/12/12 11:56:55;;;;;;;26.67;6.05;;;8.70;99.90;;;;;;5049379;28;20299;-61
2023/12/12 11:59:23;;;;;;;18.50;6.03;;;8.70;99.90;;;;;;5047842;28;20233;-60
2023/12/12 12:01:51;;;;;;;25.98;6.38;;;8.70;99.90;;;;;;5051094;28;20259;-58
2023/12/12 12:04:21;;;;;;;27.83;6.38;;;8.70;99.90;;;;;;5050863;28;20206;-61
2023/12/12 12:06:49;;;;;;;28.77;7.30;;;8.70;99.90;;;;;;5048204;28;20221;-58
2023/12/12 12:09:17;;;;;;;22.98;6.22;;;8.70;99.90;;;;;;5050163;28;20198;-60
2023/12/12 12:11:47;;;;;;;24.23;6.07;;;8.70;99.90;;;;;;5051617;28;20249;-64
2023/12/12 12:14:17;;;;;;;24.95;6.32;;;8.70;99.90;;;;;;5050205;28;20198;-61
2023/12/12 12:16:45;;;;;;;28.90;6.80;;;8.70;99.90;;;;;;5048214;28;20218;-61
2023/12/12 12:19:30;;;;;;;22.73;8.10;;;8.70;99.90;;;;;;5050548;28;20198;-61
2023/12/12 12:22:03;;;;;;;19.23;7.00;;;8.70;99.90;;;;;;5049894;28;20281;-61
2023/12/12 12:24:31;;;;;;;30.20;7.13;;;8.60;99.90;;;;;;5048385;28;20675;-61
2023/12/12 12:26:59;;;;;;;22.40;6.47;;;8.60;99.90;;;;;;5049888;28;20287;-61
2023/12/12 12:29:26;;;;;;;19.83;6.10;;;8.60;99.90;;;;;;5050006;28;20205;-61
2023/12/12 12:31:54;;;;;;;19.83;5.63;;;8.60;99.90;;;;;;5050097;28;20766;-61
2023/12/12 12:34:23;;;;;;;16.45;5.55;;;8.60;99.90;;;;;;5050108;28;20255;-61
2023/12/12 12:36:55;;;;;;;23.27;5.45;;;8.70;99.90;;;;;;5049981;28;20257;-63
2023/12/12 12:39:25;;;;;;;16.10;6.43;;;8.70;99.90;;;;;;5047682;28;20259;-63
2023/12/12 12:41:58;;;;;;;17.30;5.60;;;8.70;99.90;;;;;;5053383;28;20225;-61
2023/12/12 12:44:32;;;;;;;20.40;5.82;;;8.70;99.90;;;;;;5050035;28;20214;-60
2023/12/12 12:47:00;;;;;;;16.27;5.40;;;8.70;99.90;;;;;;5050239;28;20264;-62
2023/12/12 12:49:28;;;;;;;12.95;5.10;;;8.70;99.90;;;;;;5050494;28;20233;-61
2023/12/12 12:51:58;;;;;;;15.13;4.60;;;8.70;99.90;;;;;;5051468;28;20309;-60
2023/12/12 12:54:26;;;;;;;11.50;5.07;;;8.70;99.90;;;;;;5053028;28;20198;-61